sensor_id;sensor_type;location;lat;lon;timestamp;pressure;altitude;pressure_sealevel;temperature;humidity
81397;BME280;70852;49.908;8.126;2023-08-20T00:00:25;100616.63;;;22.21;78.78
81397;BME280;70852;49.908;8.126;2023-08-20T00:02:55;100619.47;;;22.24;78.60
81397;BME280;70852;49.908;8.126;2023-08-20T00:05:25;100619.47;;;22.24;78.34
81397;BME280;70852;49.908;8.126;2023-08-20T00:07:55;100623.44;;;22.20;79.10
81397;BME280;70852;49.908;8.126;2023-08-20T00:10:25;100625.06;;;22.21;79.86
81397;BME280;70852;49.908;8.126;2023-08-20T00:12:53;100624.28;;;22.27;79.54
81397;BME280;70852;49.908;8.126;2023-08-20T00:15:18;100625.09;;;22.24;78.73
81397;BME280;70852;49.908;8.126;2023-08-20T00:17:54;100625.81;;;22.18;78.92
81397;BME280;70852;49.908;8.126;2023-08-20T00:20:20;100631.84;;;22.16;79.16
81397;BME280;70852;49.908;8.126;2023-08-20T00:22:47;100626.22;;;22.16;79.36
81397;BME280;70852;49.908;8.126;2023-08-20T00:25:13;100627.03;;;22.17;79.59
81397;BME280;70852;49.908;8.126;2023-08-20T00:27:39;100626.50;;;22.04;79.46
81397;BME280;70852;49.908;8.126;2023-08-20T00:30:05;100634.19;;;22.07;80.07
81397;BME280;70852;49.908;8.126;2023-08-20T00:32:34;100634.94;;;22.04;80.10
81397;BME280;70852;49.908;8.126;2023-08-20T00:35:03;100634.00;;;21.93;79.90
81397;BME280;70852;49.908;8.126;2023-08-20T00:37:31;100638.47;;;21.98;80.23
81397;BME280;70852;49.908;8.126;2023-08-20T00:39:56;100638.00;;;21.88;80.65
81397;BME280;70852;49.908;8.126;2023-08-20T00:42:27;100637.03;;;21.74;80.67
81397;BME280;70852;49.908;8.126;2023-08-20T00:44:55;100642.72;;;21.77;80.98
81397;BME280;70852;49.908;8.126;2023-08-20T00:47:23;100637.03;;;21.74;80.68
81397;BME280;70852;49.908;8.126;2023-08-20T00:49:49;100638.22;;;21.69;81.10
81397;BME280;70852;49.908;8.126;2023-08-20T00:52:16;100639.41;;;21.68;81.10
81397;BME280;70852;49.908;8.126;2023-08-20T00:54:44;100632.81;;;21.53;81.72
81397;BME280;70852;49.908;8.126;2023-08-20T00:57:12;100630.38;;;21.52;81.66
81397;BME280;70852;49.908;8.126;2023-08-20T00:59:40;100620.34;;;21.51;81.61
81397;BME280;70852;49.908;8.126;2023-08-20T01:02:06;100625.56;;;21.49;81.82
81397;BME280;70852;49.908;8.126;2023-08-20T01:04:31;100627.38;;;21.34;82.24
81397;BME280;70852;49.908;8.126;2023-08-20T01:12:35;100619.78;;;21.35;81.98
81397;BME280;70852;49.908;8.126;2023-08-20T01:15:06;100600.81;;;21.25;82.60
81397;BME280;70852;49.908;8.126;2023-08-20T01:17:33;100606.84;;;21.27;82.13
81397;BME280;70852;49.908;8.126;2023-08-20T01:20:00;100601.13;;;21.19;82.34
81397;BME280;70852;49.908;8.126;2023-08-20T01:25:30;100609.28;;;21.28;82.83
81397;BME280;70852;49.908;8.126;2023-08-20T01:30:25;100612.31;;;21.16;83.01
81397;BME280;70852;49.908;8.126;2023-08-20T01:32:53;100615.88;;;21.13;82.93
81397;BME280;70852;49.908;8.126;2023-08-20T01:35:19;100617.38;;;21.03;83.22
81397;BME280;70852;49.908;8.126;2023-08-20T01:37:44;100622.53;;;21.01;82.94
81397;BME280;70852;49.908;8.126;2023-08-20T01:40:10;100624.91;;;20.99;83.26
81397;BME280;70852;49.908;8.126;2023-08-20T01:42:40;100627.69;;;20.96;83.19
81397;BME280;70852;49.908;8.126;2023-08-20T01:45:07;100625.78;;;21.03;83.31
81397;BME280;70852;49.908;8.126;2023-08-20T01:47:33;100626.09;;;20.98;83.27
81397;BME280;70852;49.908;8.126;2023-08-20T01:49:59;100630.81;;;20.91;83.95
81397;BME280;70852;49.908;8.126;2023-08-20T01:52:26;100629.19;;;20.86;83.85
81397;BME280;70852;49.908;8.126;2023-08-20T01:54:52;100632.69;;;20.79;84.02
81397;BME280;70852;49.908;8.126;2023-08-20T01:57:18;100637.91;;;20.81;84.03
81397;BME280;70852;49.908;8.126;2023-08-20T01:59:43;100645.81;;;20.72;84.36
81397;BME280;70852;49.908;8.126;2023-08-20T02:02:11;100653.34;;;20.68;84.92
81397;BME280;70852;49.908;8.126;2023-08-20T02:04:36;100664.66;;;20.71;84.53
81397;BME280;70852;49.908;8.126;2023-08-20T02:07:04;100658.13;;;20.64;84.26
81397;BME280;70852;49.908;8.126;2023-08-20T02:09:34;100658.44;;;20.59;84.79
81397;BME280;70852;49.908;8.126;2023-08-20T02:12:00;100649.06;;;20.48;85.19
81397;BME280;70852;49.908;8.126;2023-08-20T02:14:25;100653.81;;;20.43;85.42
81397;BME280;70852;49.908;8.126;2023-08-20T02:19:17;100656.00;;;20.34;84.82
81397;BME280;70852;49.908;8.126;2023-08-20T02:21:42;100644.00;;;20.34;84.63
81397;BME280;70852;49.908;8.126;2023-08-20T02:24:08;100649.50;;;20.27;84.38
81397;BME280;70852;49.908;8.126;2023-08-20T02:26:33;100642.22;;;20.22;84.64
81397;BME280;70852;49.908;8.126;2023-08-20T02:28:58;100644.06;;;20.15;84.74
81397;BME280;70852;49.908;8.126;2023-08-20T02:31:24;100642.03;;;20.12;84.53
81397;BME280;70852;49.908;8.126;2023-08-20T02:33:49;100643.53;;;20.05;84.76
81397;BME280;70852;49.908;8.126;2023-08-20T02:36:17;100648.31;;;20.05;85.12
81397;BME280;70852;49.908;8.126;2023-08-20T02:38:44;100643.41;;;19.98;85.48
81397;BME280;70852;49.908;8.126;2023-08-20T02:41:10;100644.59;;;19.97;85.52
81397;BME280;70852;49.908;8.126;2023-08-20T02:43:35;100648.13;;;19.94;85.86
81397;BME280;70852;49.908;8.126;2023-08-20T02:46:00;100638.09;;;19.93;85.58
81397;BME280;70852;49.908;8.126;2023-08-20T02:48:26;100646.31;;;19.83;85.96
81397;BME280;70852;49.908;8.126;2023-08-20T02:50:56;100644.69;;;19.82;85.76
81397;BME280;70852;49.908;8.126;2023-08-20T02:53:23;100640.78;;;19.86;85.37
81397;BME280;70852;49.908;8.126;2023-08-20T02:55:49;100632.63;;;19.78;85.89
81397;BME280;70852;49.908;8.126;2023-08-20T02:58:16;100634.81;;;19.88;85.31
81397;BME280;70852;49.908;8.126;2023-08-20T03:00:42;100627.16;;;19.85;85.10
81397;BME280;70852;49.908;8.126;2023-08-20T03:03:08;100639.50;;;19.80;85.66
81397;BME280;70852;49.908;8.126;2023-08-20T03:05:37;100634.00;;;19.64;85.59
81397;BME280;70852;49.908;8.126;2023-08-20T03:08:07;100631.00;;;19.77;85.54
81397;BME280;70852;49.908;8.126;2023-08-20T03:10:34;100634.13;;;19.71;85.74
81397;BME280;70852;49.908;8.126;2023-08-20T03:13:00;100627.16;;;19.85;85.48
81397;BME280;70852;49.908;8.126;2023-08-20T03:15:26;100627.31;;;19.72;85.36
81397;BME280;70852;49.908;8.126;2023-08-20T03:17:54;100623.53;;;19.61;85.79
81397;BME280;70852;49.908;8.126;2023-08-20T03:20:22;100626.56;;;19.53;86.01
81397;BME280;70852;49.908;8.126;2023-08-20T03:22:48;100634.31;;;19.59;86.43
81397;BME280;70852;49.908;8.126;2023-08-20T03:25:18;100636.31;;;19.59;86.21
81397;BME280;70852;49.908;8.126;2023-08-20T03:27:46;100633.72;;;19.50;86.19
81397;BME280;70852;49.908;8.126;2023-08-20T03:30:11;100632.91;;;19.50;86.11
81397;BME280;70852;49.908;8.126;2023-08-20T03:32:37;100631.00;;;19.54;85.68
81397;BME280;70852;49.908;8.126;2023-08-20T03:35:02;100636.50;;;19.50;85.64
81397;BME280;70852;49.908;8.126;2023-08-20T03:37:30;100639.47;;;19.38;86.34
81397;BME280;70852;49.908;8.126;2023-08-20T03:39:55;100638.41;;;19.46;86.00
81397;BME280;70852;49.908;8.126;2023-08-20T03:42:20;100633.28;;;19.48;85.99
81397;BME280;70852;49.908;8.126;2023-08-20T03:44:46;100635.91;;;19.41;86.32
81397;BME280;70852;49.908;8.126;2023-08-20T03:47:11;100641.22;;;19.46;86.76
81397;BME280;70852;49.908;8.126;2023-08-20T03:49:39;100642.63;;;19.56;85.99
81397;BME280;70852;49.908;8.126;2023-08-20T03:52:05;100650.91;;;19.49;86.20
81397;BME280;70852;49.908;8.126;2023-08-20T03:54:32;100649.25;;;19.48;86.72
81397;BME280;70852;49.908;8.126;2023-08-20T03:56:58;100651.41;;;19.35;86.46
81397;BME280;70852;49.908;8.126;2023-08-20T03:59:23;100648.88;;;19.30;86.78
81397;BME280;70852;49.908;8.126;2023-08-20T04:01:49;100653.03;;;19.36;86.59
81397;BME280;70852;49.908;8.126;2023-08-20T04:04:17;100653.63;;;19.26;86.60
81397;BME280;70852;49.908;8.126;2023-08-20T04:06:42;100651.69;;;19.30;87.12
81397;BME280;70852;49.908;8.126;2023-08-20T04:09:07;100660.63;;;19.35;86.29
81397;BME280;70852;49.908;8.126;2023-08-20T04:11:34;100656.63;;;19.36;85.93
81397;BME280;70852;49.908;8.126;2023-08-20T04:14:02;100666.13;;;19.32;86.53
81397;BME280;70852;49.908;8.126;2023-08-20T04:16:29;100664.88;;;19.29;86.54
81397;BME280;70852;49.908;8.126;2023-08-20T04:18:57;100675.88;;;19.38;85.96
81397;BME280;70852;49.908;8.126;2023-08-20T04:21:22;100675.44;;;19.36;86.38
81397;BME280;70852;49.908;8.126;2023-08-20T04:23:48;100669.38;;;19.34;86.24
81397;BME280;70852;49.908;8.126;2023-08-20T04:26:13;100675.06;;;19.37;86.04
81397;BME280;70852;49.908;8.126;2023-08-20T04:28:38;100670.94;;;19.31;86.31
81397;BME280;70852;49.908;8.126;2023-08-20T04:31:04;100674.84;;;19.27;86.48
81397;BME280;70852;49.908;8.126;2023-08-20T04:33:29;100675.25;;;19.29;85.90
81397;BME280;70852;49.908;8.126;2023-08-20T04:35:57;100678.06;;;19.29;86.37
81397;BME280;70852;49.908;8.126;2023-08-20T04:38:23;100677.94;;;19.22;86.91
81397;BME280;70852;49.908;8.126;2023-08-20T04:40:48;100674.97;;;19.34;85.83
81397;BME280;70852;49.908;8.126;2023-08-20T04:43:16;100677.06;;;19.37;85.74
81397;BME280;70852;49.908;8.126;2023-08-20T04:45:42;100683.06;;;19.39;85.89
81397;BME280;70852;49.908;8.126;2023-08-20T04:48:09;100679.91;;;19.41;86.05
81397;BME280;70852;49.908;8.126;2023-08-20T04:50:35;100681.47;;;19.38;85.96
81397;BME280;70852;49.908;8.126;2023-08-20T04:53:02;100692.97;;;19.52;85.76
81397;BME280;70852;49.908;8.126;2023-08-20T04:55:28;100693.06;;;19.56;85.85
81397;BME280;70852;49.908;8.126;2023-08-20T04:57:53;100690.72;;;19.58;86.03
81397;BME280;70852;49.908;8.126;2023-08-20T05:00:22;100696.44;;;19.65;85.70
81397;BME280;70852;49.908;8.126;2023-08-20T05:02:50;100700.13;;;19.69;85.81
81397;BME280;70852;49.908;8.126;2023-08-20T05:05:15;100701.06;;;19.77;86.03
81397;BME280;70852;49.908;8.126;2023-08-20T05:07:43;100699.56;;;19.83;86.03
81397;BME280;70852;49.908;8.126;2023-08-20T05:10:11;100704.97;;;19.91;85.44
81397;BME280;70852;49.908;8.126;2023-08-20T05:12:37;100705.44;;;19.97;85.73
81397;BME280;70852;49.908;8.126;2023-08-20T05:15:04;100697.97;;;20.04;85.48
81397;BME280;70852;49.908;8.126;2023-08-20T05:17:30;100693.44;;;20.19;85.05
81397;BME280;70852;49.908;8.126;2023-08-20T05:19:55;100694.00;;;20.28;84.51
81397;BME280;70852;49.908;8.126;2023-08-20T05:22:20;100694.38;;;20.27;85.20
81397;BME280;70852;49.908;8.126;2023-08-20T05:24:46;100692.88;;;20.33;85.22
81397;BME280;70852;49.908;8.126;2023-08-20T05:27:15;100691.91;;;20.44;85.03
81397;BME280;70852;49.908;8.126;2023-08-20T05:29:44;100699.16;;;20.49;84.57
81397;BME280;70852;49.908;8.126;2023-08-20T05:32:09;100706.03;;;20.52;84.46
81397;BME280;70852;49.908;8.126;2023-08-20T05:34:35;100701.25;;;20.52;84.77
81397;BME280;70852;49.908;8.126;2023-08-20T05:37:01;100712.47;;;20.52;85.45
81397;BME280;70852;49.908;8.126;2023-08-20T05:39:26;100719.09;;;20.67;84.32
81397;BME280;70852;49.908;8.126;2023-08-20T05:41:53;100725.59;;;20.71;84.20
81397;BME280;70852;49.908;8.126;2023-08-20T05:44:18;100730.28;;;20.63;84.37
81397;BME280;70852;49.908;8.126;2023-08-20T05:46:46;100727.63;;;20.74;84.77
81397;BME280;70852;49.908;8.126;2023-08-20T05:49:13;100713.81;;;20.88;83.94
81397;BME280;70852;49.908;8.126;2023-08-20T05:51:38;100725.59;;;20.97;84.38
81397;BME280;70852;49.908;8.126;2023-08-20T05:54:04;100728.56;;;21.08;83.44
81397;BME280;70852;49.908;8.126;2023-08-20T05:56:32;100727.94;;;21.22;82.92
81397;BME280;70852;49.908;8.126;2023-08-20T05:58:59;100723.41;;;21.40;82.62
81397;BME280;70852;49.908;8.126;2023-08-20T06:01:24;100728.75;;;21.52;82.66
81397;BME280;70852;49.908;8.126;2023-08-20T06:03:50;100729.31;;;21.65;81.83
81397;BME280;70852;49.908;8.126;2023-08-20T06:06:15;100725.00;;;21.74;81.78
81397;BME280;70852;49.908;8.126;2023-08-20T06:08:43;100720.78;;;21.91;81.94
81397;BME280;70852;49.908;8.126;2023-08-20T06:11:08;100716.13;;;22.06;81.13
81397;BME280;70852;49.908;8.126;2023-08-20T06:13:36;100722.75;;;22.27;79.63
81397;BME280;70852;49.908;8.126;2023-08-20T06:16:01;100731.41;;;22.49;80.71
81397;BME280;70852;49.908;8.126;2023-08-20T06:18:26;100738.94;;;22.82;79.48
81397;BME280;70852;49.908;8.126;2023-08-20T06:20:54;100736.25;;;23.03;76.01
81397;BME280;70852;49.908;8.126;2023-08-20T06:23:22;100740.72;;;23.11;76.42
81397;BME280;70852;49.908;8.126;2023-08-20T06:25:50;100741.16;;;23.20;76.64
81397;BME280;70852;49.908;8.126;2023-08-20T06:28:17;100735.50;;;23.13;76.65
81397;BME280;70852;49.908;8.126;2023-08-20T06:30:45;100740.72;;;23.08;76.51
81397;BME280;70852;49.908;8.126;2023-08-20T06:33:12;100734.63;;;22.98;76.10
81397;BME280;70852;49.908;8.126;2023-08-20T06:35:38;100733.09;;;23.15;77.29
81397;BME280;70852;49.908;8.126;2023-08-20T06:38:06;100741.69;;;23.36;73.79
81397;BME280;70852;49.908;8.126;2023-08-20T06:40:32;100749.03;;;23.55;74.54
81397;BME280;70852;49.908;8.126;2023-08-20T06:42:58;100759.59;;;23.76;73.20
81397;BME280;70852;49.908;8.126;2023-08-20T06:45:25;100756.72;;;23.62;73.16
81397;BME280;70852;49.908;8.126;2023-08-20T06:47:50;100748.28;;;23.62;72.79
81397;BME280;70852;49.908;8.126;2023-08-20T06:50:18;100755.13;;;23.61;73.42
81397;BME280;70852;49.908;8.126;2023-08-20T06:52:45;100756.41;;;23.81;72.67
81397;BME280;70852;49.908;8.126;2023-08-20T06:55:11;100761.66;;;23.90;72.24
81397;BME280;70852;49.908;8.126;2023-08-20T06:57:36;100759.53;;;23.58;73.10
81397;BME280;70852;49.908;8.126;2023-08-20T07:00:04;100754.59;;;23.41;73.09
81397;BME280;70852;49.908;8.126;2023-08-20T07:02:34;100764.50;;;24.00;71.54
81397;BME280;70852;49.908;8.126;2023-08-20T07:05:04;100752.13;;;24.72;69.67
81397;BME280;70852;49.908;8.126;2023-08-20T07:07:29;100750.00;;;25.40;66.75
81397;BME280;70852;49.908;8.126;2023-08-20T07:09:55;100749.38;;;25.95;65.81
81397;BME280;70852;49.908;8.126;2023-08-20T07:12:25;100762.59;;;26.71;62.63
81397;BME280;70852;49.908;8.126;2023-08-20T07:14:52;100764.72;;;27.12;60.86
81397;BME280;70852;49.908;8.126;2023-08-20T07:17:20;100760.88;;;27.29;59.56
81397;BME280;70852;49.908;8.126;2023-08-20T07:19:45;100758.22;;;27.45;60.18
81397;BME280;70852;49.908;8.126;2023-08-20T07:22:13;100767.03;;;27.88;59.05
81397;BME280;70852;49.908;8.126;2023-08-20T07:24:41;100766.19;;;27.91;59.19
81397;BME280;70852;49.908;8.126;2023-08-20T07:27:07;100775.81;;;27.71;57.63
81397;BME280;70852;49.908;8.126;2023-08-20T07:29:39;100774.94;;;28.04;57.58
81397;BME280;70852;49.908;8.126;2023-08-20T07:32:04;100772.34;;;28.17;58.25
81397;BME280;70852;49.908;8.126;2023-08-20T07:34:32;100777.00;;;28.84;54.87
81397;BME280;70852;49.908;8.126;2023-08-20T07:36:59;100776.97;;;29.07;53.56
81397;BME280;70852;49.908;8.126;2023-08-20T07:39:25;100777.72;;;29.11;55.35
81397;BME280;70852;49.908;8.126;2023-08-20T07:41:50;100778.97;;;29.54;52.75
81397;BME280;70852;49.908;8.126;2023-08-20T07:44:17;100780.72;;;29.47;54.25
81397;BME280;70852;49.908;8.126;2023-08-20T07:46:43;100780.78;;;30.03;51.43
81397;BME280;70852;49.908;8.126;2023-08-20T07:49:11;100782.91;;;29.60;52.30
81397;BME280;70852;49.908;8.126;2023-08-20T07:51:36;100781.78;;;29.34;53.97
81397;BME280;70852;49.908;8.126;2023-08-20T07:54:01;100769.56;;;29.76;52.83
81397;BME280;70852;49.908;8.126;2023-08-20T07:56:32;100775.13;;;30.19;50.66
81397;BME280;70852;49.908;8.126;2023-08-20T07:59:01;100771.44;;;29.83;51.49
81397;BME280;70852;49.908;8.126;2023-08-20T08:01:29;100765.75;;;30.03;52.35
81397;BME280;70852;49.908;8.126;2023-08-20T08:03:57;100769.78;;;30.58;52.65
81397;BME280;70852;49.908;8.126;2023-08-20T08:06:25;100765.81;;;31.16;49.03
81397;BME280;70852;49.908;8.126;2023-08-20T08:08:50;100766.81;;;31.10;48.83
81397;BME280;70852;49.908;8.126;2023-08-20T08:11:17;100772.13;;;31.82;47.92
81397;BME280;70852;49.908;8.126;2023-08-20T08:13:43;100765.94;;;32.38;46.82
81397;BME280;70852;49.908;8.126;2023-08-20T08:16:12;100769.91;;;32.53;45.43
81397;BME280;70852;49.908;8.126;2023-08-20T08:18:38;100770.16;;;32.58;45.40
81397;BME280;70852;49.908;8.126;2023-08-20T08:21:05;100774.34;;;33.04;42.58
81397;BME280;70852;49.908;8.126;2023-08-20T08:23:35;100774.72;;;33.28;41.22
81397;BME280;70852;49.908;8.126;2023-08-20T08:26:00;100778.72;;;33.31;40.69
81397;BME280;70852;49.908;8.126;2023-08-20T08:28:28;100774.34;;;33.39;42.63
81397;BME280;70852;49.908;8.126;2023-08-20T08:30:53;100775.97;;;33.84;39.78
81397;BME280;70852;49.908;8.126;2023-08-20T08:33:21;100784.34;;;34.00;39.95
81397;BME280;70852;49.908;8.126;2023-08-20T08:35:52;100776.66;;;33.31;40.34
81397;BME280;70852;49.908;8.126;2023-08-20T08:38:17;100776.78;;;33.28;41.89
81397;BME280;70852;49.908;8.126;2023-08-20T08:40:45;100764.50;;;34.14;41.41
81397;BME280;70852;49.908;8.126;2023-08-20T08:43:11;100783.81;;;34.23;39.93
81397;BME280;70852;49.908;8.126;2023-08-20T08:45:48;100783.75;;;34.36;40.47
81397;BME280;70852;49.908;8.126;2023-08-20T08:48:16;100776.81;;;33.50;41.20
81397;BME280;70852;49.908;8.126;2023-08-20T08:50:43;100766.00;;;34.59;39.89
81397;BME280;70852;49.908;8.126;2023-08-20T08:53:10;100763.88;;;35.00;39.99
81397;BME280;70852;49.908;8.126;2023-08-20T08:55:37;100766.81;;;35.27;38.46
81397;BME280;70852;49.908;8.126;2023-08-20T08:58:03;100766.31;;;35.29;39.18
81397;BME280;70852;49.908;8.126;2023-08-20T09:00:31;100767.91;;;35.48;38.13
81397;BME280;70852;49.908;8.126;2023-08-20T09:03:00;100778.91;;;35.86;37.61
81397;BME280;70852;49.908;8.126;2023-08-20T09:05:25;100773.47;;;35.88;36.78
81397;BME280;70852;49.908;8.126;2023-08-20T09:07:55;100772.16;;;35.98;37.41
81397;BME280;70852;49.908;8.126;2023-08-20T09:10:29;100783.09;;;36.69;36.38
81397;BME280;70852;49.908;8.126;2023-08-20T09:12:56;100776.56;;;36.92;34.77
81397;BME280;70852;49.908;8.126;2023-08-20T09:15:31;100774.22;;;37.06;35.13
81397;BME280;70852;49.908;8.126;2023-08-20T09:17:56;100776.81;;;37.42;34.98
81397;BME280;70852;49.908;8.126;2023-08-20T09:20:34;100771.28;;;37.38;33.40
81397;BME280;70852;49.908;8.126;2023-08-20T09:22:59;100778.03;;;37.35;35.42
81397;BME280;70852;49.908;8.126;2023-08-20T09:25:25;100771.28;;;37.53;33.68
81397;BME280;70852;49.908;8.126;2023-08-20T09:27:50;100775.75;;;37.54;32.64
81397;BME280;70852;49.908;8.126;2023-08-20T09:30:20;100770.97;;;37.13;34.19
81397;BME280;70852;49.908;8.126;2023-08-20T09:33:04;100785.34;;;38.04;32.47
81397;BME280;70852;49.908;8.126;2023-08-20T09:35:30;100773.78;;;38.49;30.76
81397;BME280;70852;49.908;8.126;2023-08-20T09:38:03;100771.69;;;38.14;32.55
81397;BME280;70852;49.908;8.126;2023-08-20T09:40:32;100777.22;;;36.87;33.50
81397;BME280;70852;49.908;8.126;2023-08-20T09:43:01;100775.66;;;37.49;32.69
81397;BME280;70852;49.908;8.126;2023-08-20T09:45:28;100783.28;;;38.20;32.64
81397;BME280;70852;49.908;8.126;2023-08-20T09:47:58;100781.81;;;38.74;31.50
81397;BME280;70852;49.908;8.126;2023-08-20T09:50:25;100782.69;;;37.33;31.00
81397;BME280;70852;49.908;8.126;2023-08-20T09:53:05;100779.38;;;37.93;31.93
81397;BME280;70852;49.908;8.126;2023-08-20T09:55:38;100779.06;;;38.85;30.23
81397;BME280;70852;49.908;8.126;2023-08-20T09:58:05;100781.47;;;38.87;30.88
81397;BME280;70852;49.908;8.126;2023-08-20T10:00:31;100777.47;;;38.84;30.14
81397;BME280;70852;49.908;8.126;2023-08-20T10:02:57;100768.09;;;38.89;30.24
81397;BME280;70852;49.908;8.126;2023-08-20T10:05:23;100773.72;;;38.78;30.04
81397;BME280;70852;49.908;8.126;2023-08-20T10:07:53;100769.47;;;38.94;30.14
81397;BME280;70852;49.908;8.126;2023-08-20T10:10:19;100769.19;;;38.92;30.59
81397;BME280;70852;49.908;8.126;2023-08-20T10:12:47;100767.19;;;39.18;29.80
81397;BME280;70852;49.908;8.126;2023-08-20T10:15:13;100761.03;;;39.10;29.19
81397;BME280;70852;49.908;8.126;2023-08-20T10:17:41;100768.47;;;39.37;30.39
81397;BME280;70852;49.908;8.126;2023-08-20T10:20:10;100764.19;;;39.53;30.08
81397;BME280;70852;49.908;8.126;2023-08-20T10:22:39;100767.81;;;39.74;29.68
81397;BME280;70852;49.908;8.126;2023-08-20T10:25:06;100763.66;;;39.49;29.38
81397;BME280;70852;49.908;8.126;2023-08-20T10:27:33;100762.38;;;40.39;27.54
81397;BME280;70852;49.908;8.126;2023-08-20T10:29:59;100767.16;;;40.10;27.38
81397;BME280;70852;49.908;8.126;2023-08-20T10:32:45;100767.13;;;40.05;28.55
81397;BME280;70852;49.908;8.126;2023-08-20T10:35:11;100760.69;;;39.03;28.66
81397;BME280;70852;49.908;8.126;2023-08-20T10:37:37;100765.88;;;40.17;28.07
81397;BME280;70852;49.908;8.126;2023-08-20T10:40:08;100763.97;;;40.34;27.85
81397;BME280;70852;49.908;8.126;2023-08-20T10:42:41;100756.22;;;39.68;28.91
81397;BME280;70852;49.908;8.126;2023-08-20T10:45:08;100757.69;;;40.41;27.85
81397;BME280;70852;49.908;8.126;2023-08-20T10:50:10;100759.88;;;39.43;28.50
81397;BME280;70852;49.908;8.126;2023-08-20T10:52:40;100761.25;;;38.52;28.98
81397;BME280;70852;49.908;8.126;2023-08-20T10:55:13;100759.41;;;38.34;30.63
81397;BME280;70852;49.908;8.126;2023-08-20T10:57:43;100764.94;;;38.37;31.27
81397;BME280;70852;49.908;8.126;2023-08-20T11:00:09;100757.50;;;38.31;30.22
81397;BME280;70852;49.908;8.126;2023-08-20T11:02:38;100758.03;;;37.85;31.67
81397;BME280;70852;49.908;8.126;2023-08-20T11:05:04;100751.03;;;37.48;33.28
81397;BME280;70852;49.908;8.126;2023-08-20T11:07:30;100753.84;;;36.94;32.99
81397;BME280;70852;49.908;8.126;2023-08-20T11:09:57;100746.50;;;37.17;32.69
81397;BME280;70852;49.908;8.126;2023-08-20T11:12:25;100748.81;;;36.47;34.07
81397;BME280;70852;49.908;8.126;2023-08-20T11:14:50;100748.22;;;36.43;34.52
81397;BME280;70852;49.908;8.126;2023-08-20T11:17:15;100748.78;;;36.14;34.26
81397;BME280;70852;49.908;8.126;2023-08-20T11:19:43;100751.16;;;35.55;34.91
81397;BME280;70852;49.908;8.126;2023-08-20T11:22:11;100742.78;;;35.94;33.79
81397;BME280;70852;49.908;8.126;2023-08-20T11:24:42;100747.25;;;35.95;34.28
81397;BME280;70852;49.908;8.126;2023-08-20T11:27:08;100748.38;;;35.98;35.24
81397;BME280;70852;49.908;8.126;2023-08-20T11:29:33;100748.09;;;35.68;33.61
81397;BME280;70852;49.908;8.126;2023-08-20T11:31:58;100745.25;;;35.59;34.93
81397;BME280;70852;49.908;8.126;2023-08-20T11:34:26;100751.31;;;35.34;35.43
81397;BME280;70852;49.908;8.126;2023-08-20T11:36:51;100745.09;;;35.44;36.00
81397;BME280;70852;49.908;8.126;2023-08-20T11:39:17;100744.44;;;35.22;36.74
81397;BME280;70852;49.908;8.126;2023-08-20T11:41:43;100738.22;;;35.23;35.58
81397;BME280;70852;49.908;8.126;2023-08-20T11:44:09;100745.44;;;34.51;38.06
81397;BME280;70852;49.908;8.126;2023-08-20T11:46:42;100749.97;;;34.31;37.35
81397;BME280;70852;49.908;8.126;2023-08-20T11:49:12;100750.66;;;34.13;37.75
81397;BME280;70852;49.908;8.126;2023-08-20T11:54:12;100746.34;;;33.77;39.47
81397;BME280;70852;49.908;8.126;2023-08-20T11:56:48;100747.13;;;33.56;37.65
81397;BME280;70852;49.908;8.126;2023-08-20T11:59:15;100744.75;;;33.76;38.54
81397;BME280;70852;49.908;8.126;2023-08-20T12:01:40;100748.84;;;33.97;39.83
81397;BME280;70852;49.908;8.126;2023-08-20T12:04:09;100734.00;;;33.90;38.84
81397;BME280;70852;49.908;8.126;2023-08-20T12:06:36;100736.25;;;33.51;38.63
81397;BME280;70852;49.908;8.126;2023-08-20T12:09:21;100744.78;;;33.64;39.11
81397;BME280;70852;49.908;8.126;2023-08-20T12:11:52;100735.50;;;33.16;40.42
81397;BME280;70852;49.908;8.126;2023-08-20T12:14:21;100727.88;;;33.35;39.76
81397;BME280;70852;49.908;8.126;2023-08-20T12:16:47;100736.31;;;33.38;41.35
81397;BME280;70852;49.908;8.126;2023-08-20T12:19:13;100728.41;;;33.42;40.21
81397;BME280;70852;49.908;8.126;2023-08-20T12:21:39;100725.75;;;33.26;41.66
81397;BME280;70852;49.908;8.126;2023-08-20T12:24:05;100719.28;;;33.35;40.30
81397;BME280;70852;49.908;8.126;2023-08-20T12:26:33;100721.34;;;33.34;39.61
81397;BME280;70852;49.908;8.126;2023-08-20T12:29:01;100726.81;;;33.07;39.98
81397;BME280;70852;49.908;8.126;2023-08-20T12:31:26;100724.69;;;33.20;41.03
81397;BME280;70852;49.908;8.126;2023-08-20T12:33:51;100721.28;;;33.47;39.49
81397;BME280;70852;49.908;8.126;2023-08-20T12:36:19;100711.34;;;33.39;40.18
81397;BME280;70852;49.908;8.126;2023-08-20T12:38:44;100715.16;;;33.58;39.65
81397;BME280;70852;49.908;8.126;2023-08-20T12:41:10;100713.00;;;33.49;40.79
81397;BME280;70852;49.908;8.126;2023-08-20T12:43:35;100709.72;;;32.94;39.82
81397;BME280;70852;49.908;8.126;2023-08-20T12:46:00;100707.78;;;32.91;41.14
81397;BME280;70852;49.908;8.126;2023-08-20T12:48:28;100706.50;;;32.92;41.59
81397;BME280;70852;49.908;8.126;2023-08-20T12:50:54;100698.72;;;32.93;40.48
81397;BME280;70852;49.908;8.126;2023-08-20T12:53:19;100699.38;;;32.97;40.45
81397;BME280;70852;49.908;8.126;2023-08-20T12:55:45;100698.41;;;33.25;41.04
81397;BME280;70852;49.908;8.126;2023-08-20T12:58:10;100695.84;;;33.27;41.63
81397;BME280;70852;49.908;8.126;2023-08-20T13:00:38;100690.66;;;33.35;40.83
81397;BME280;70852;49.908;8.126;2023-08-20T13:03:04;100696.44;;;33.44;42.49
81397;BME280;70852;49.908;8.126;2023-08-20T13:05:30;100697.72;;;33.43;39.67
81397;BME280;70852;49.908;8.126;2023-08-20T13:07:58;100690.69;;;33.66;40.80